Date,TemperatureHighF,TemperatureAvgF,TemperatureLowF,DewpointHighF,DewpointAvgF,DewpointLowF,HumidityHigh,HumidityAvg,HumidityLow,PressureMaxIn,PressureMinIn,WindSpeedMaxMPH,WindSpeedAvgMPH,GustSpeedMaxMPH,PrecipitationSumIn
2012-1-1,59,52,44,31,25,19,49,36,25,30.06,29.62,0,0,0,0.00
2012-1-2,53,45,37,26,20,16,54,38,26,30.21,30.03,0,0,0,0.00
2012-1-3,60,46,32,25,22,19,62,40,26,30.03,29.65,0,0,0,0.00
2012-1-4,60,50,42,36,29,22,72,46,30,29.77,29.62,0,0,0,0.00
2012-1-5,66,50,35,35,29,26,71,48,25,29.77,29.50,0,0,0,0.00
2012-1-6,72,60,49,51,43,34,84,58,32,29.50,29.26,0,0,0,0.00
2012-1-7,61,54,48,51,37,33,80,54,39,29.50,29.32,0,0,0,0.00
2012-1-8,58,51,42,49,42,34,86,72,65,29.59,29.47,0,0,0,0.00
2012-1-9,53,47,45,45,43,41,93,87,73,29.65,29.50,0,0,0,0.79
2012-1-28,47,43,39,24,23,22,53,45,38,29.88,29.88,0,0,0,0.79
2012-1-29,61,47,34,31,25,23,69,45,25,29.91,29.71,0,0,0,0.00
2012-1-30,68,57,44,54,41,28,74,56,39,29.71,29.53,0,0,0,0.00
2012-1-31,75,66,61,59,56,52,88,72,45,29.56,29.41,0,0,0,0.00
2012-2-1,74,63,56,59,53,44,93,71,41,29.59,29.47,0,0,0,0.00
2012-2-2,73,62,49,62,53,43,90,74,53,29.59,29.41,0,0,0,0.00
2012-2-3,74,68,57,67,61,44,98,80,53,29.50,29.29,0,0,0,0.00
2012-2-4,57,52,46,44,35,28,66,53,40,29.77,29.50,0,0,0,0.00
2012-2-5,50,45,40,34,29,27,69,53,41,29.85,29.77,0,0,0,0.00
2012-2-6,56,47,37,35,31,28,74,56,37,29.83,29.62,0,0,0,0.00
2012-2-7,62,54,49,40,36,34,61,51,36,30.37,29.62,0,0,0,0.00
2012-2-8,49,46,43,36,33,30,74,60,49,30.52,30.35,0,0,0,0.00
2012-2-9,61,49,37,43,34,28,75,57,43,30.37,30.08,0,0,0,0.00
2012-2-10,59,51,38,46,36,22,84,60,37,30.40,30.05,0,0,0,0.08
2012-2-11,39,35,32,22,13,8,56,41,31,30.61,30.40,0,0,0,0.00
2012-2-12,45,38,31,32,16,10,77,43,29,30.64,30.23,0,0,0,0.00
2012-2-13,53,43,37,51,38,29,93,82,71,30.23,29.81,0,0,0,0.20
2012-2-14,67,55,48,51,48,45,95,80,47,29.99,29.81,0,0,0,0.16
2012-2-15,76,62,55,63,43,22,95,59,17,30.05,29.84,0,0,0,0.00
2012-2-16,58,52,45,41,38,30,77,61,36,30.29,30.05,0,0,0,0.00
2012-2-17,64,56,50,51,43,39,85,64,43,30.17,29.99,0,0,0,0.00
2012-2-18,55,51,48,52,46,43,94,85,65,30.08,29.87,0,0,0,1.26
2012-2-19,57,49,42,45,40,37,86,73,50,30.20,30.02,0,0,0,0.00
2012-2-20,65,55,45,52,41,14,88,65,16,30.11,29.87,0,0,0,0.04
2012-2-21,70,56,39,54,36,24,75,49,23,30.17,29.87,0,0,0,0.00
2012-2-22,79,66,56,56,40,22,92,48,12,29.87,29.55,0,0,0,0.00
2012-2-23,83,67,56,38,31,23,43,27,11,29.87,29.43,0,0,0,0.00
2012-2-24,61,53,45,26,19,11,38,27,17,30.37,29.87,0,0,0,0.00
2012-2-25,66,52,37,27,22,16,58,33,15,30.37,30.17,0,0,0,0.00
2012-2-26,68,56,45,47,36,22,63,47,35,30.17,29.99,0,0,0,0.00
2012-2-27,73,63,56,51,47,44,71,58,41,30.29,30.14,0,0,0,0.00
2012-2-28,74,66,62,63,57,48,88,73,59,30.14,29.84,0,0,0,0.00
2012-2-29,78,68,55,65,34,15,86,34,10,30.05,29.90,0,0,0,0.00
2012-3-1,82,66,50,65,47,32,89,53,30,29.93,29.58,0,0,0,0.00
2012-3-2,69,64,54,66,42,29,91,49,27,29.93,29.58,0,0,0,0.00
2012-3-3,63,55,46,32,28,23,56,37,23,30.14,29.93,0,0,0,0.00
2012-3-4,72,62,55,31,25,14,37,25,11,30.20,30.08,0,0,0,0.00
2012-3-5,78,63,48,39,32,24,53,33,15,30.32,30.17,0,0,0,0.00
2012-3-6,74,65,55,52,47,36,79,54,38,30.20,29.96,0,0,0,0.00
2012-3-7,70,68,66,64,58,52,83,72,62,29.99,29.87,0,0,0,0.00
2012-3-8,72,59,45,70,53,31,96,79,51,30.35,29.87,0,0,0,0.20
2012-3-9,55,49,43,32,27,23,58,43,31,30.49,30.32,0,0,0,0.00
2012-3-10,56,52,50,48,38,26,88,62,35,30.35,30.08,0,0,0,1.06
2012-3-11,68,58,52,54,50,47,94,78,48,30.08,29.90,0,0,0,0.16
2012-3-12,81,66,55,61,53,45,96,69,31,30.02,29.93,0,0,0,0.00
2012-3-13,79,71,64,65,62,58,95,77,51,30.14,29.99,0,0,0,0.00
2012-3-14,79,73,68,65,62,59,86,71,54,30.11,30.02,0,0,0,0.00
2012-3-15,82,74,68,64,62,59,81,68,47,30.14,30.02,0,0,0,0.00
2012-3-16,82,74,68,64,62,58,86,68,46,30.11,29.96,0,0,0,0.00
2012-3-17,82,74,67,63,59,54,82,63,41,30.02,29.90,0,0,0,0.00
2012-3-18,78,72,68,64,62,58,79,69,58,29.99,29.81,0,0,0,0.00
2012-3-19,82,71,61,65,60,48,87,69,42,29.84,29.58,0,0,0,1.34
2012-3-20,69,62,57,58,51,45,93,68,47,29.81,29.67,0,0,0,1.89
2012-3-21,69,60,53,49,41,32,80,52,27,29.84,29.75,0,0,0,1.26
2012-3-22,76,59,52,53,45,36,87,62,24,29.96,29.75,0,0,0,0.20
2012-3-23,77,62,49,49,43,36,80,53,26,30.05,29.93,0,0,0,1.26
2012-3-24,82,67,52,57,50,46,84,57,32,30.05,29.96,0,0,0,0.00
2012-3-25,85,71,58,60,52,43,84,55,24,30.08,29.96,0,0,0,1.26
2012-3-26,86,72,57,59,52,49,83,54,30,30.08,29.93,0,0,0,1.26
2012-3-27,82,72,62,57,54,48,78,54,34,30.05,29.96,0,0,0,1.26
2012-3-28,82,72,66,63,60,54,81,65,49,30.05,29.90,0,0,0,1.26
2012-3-29,82,71,62,65,61,56,90,71,47,29.96,29.81,0,0,0,1.26
2012-3-30,87,75,69,68,65,61,90,71,43,29.87,29.75,0,0,0,1.26
2012-3-31,88,76,67,68,64,60,91,68,42,29.84,29.75,0,0,0,0.00
2012-4-1,90,78,69,68,64,57,88,64,34,29.78,29.64,0,0,0,1.26
2012-4-2,88,77,70,67,63,54,84,64,35,29.70,29.55,0,0,0,1.26
2012-4-3,80,72,70,69,65,62,86,79,64,29.84,29.67,0,0,0,0.67
2012-4-4,79,70,61,61,51,45,92,53,32,29.96,29.32,0,0,0,0.39
2012-4-5,79,67,56,53,50,45,82,56,31,29.96,29.81,0,0,0,0.39
2012-4-6,82,69,57,57,52,49,82,58,33,30.08,29.96,0,0,0,0.39
2012-4-7,86,74,63,62,57,53,81,58,36,30.19,30.02,0,0,0,0.39
2012-4-8,74,68,63,65,62,59,91,81,64,30.31,30.19,0,0,0,1.26
2012-4-9,77,67,61,65,61,58,96,82,57,30.22,30.08,0,0,0,0.00
2012-4-10,86,74,64,66,60,52,92,66,32,30.14,30.05,0,0,0,0.39
2012-4-11,86,74,65,63,59,53,81,62,36,30.14,30.02,0,0,0,0.00
2012-4-12,82,72,65,63,60,55,84,65,44,30.08,29.93,0,0,0,0.00
2012-4-13,83,74,67,66,62,57,81,66,49,30.02,29.87,0,0,0,0.00
2012-4-14,83,76,72,66,64,63,78,67,53,29.90,29.72,0,0,0,0.00
2012-4-15,76,71,61,69,57,42,86,64,38,29.93,29.63,0,0,0,0.12
2012-4-16,78,66,54,55,46,39,77,52,28,30.19,29.93,0,0,0,0.00
2012-4-17,82,68,56,57,48,38,76,52,23,30.28,30.16,0,0,0,0.00
2012-4-18,84,69,56,57,50,45,81,53,30,30.19,30.02,0,0,0,0.00
2012-4-19,84,69,61,50,46,41,62,43,29,30.02,29.84,0,0,0,0.00
2012-4-22,68,66,63,44,40,38,45,38,33,30.20,29.59,0,0,0,0.00
2012-4-23,80,66,52,45,38,32,69,39,20,30.29,30.08,0,0,0,0.00
2012-4-24,89,72,55,52,47,41,70,44,26,30.08,29.84,0,0,0,0.00
2012-4-25,91,78,67,64,60,52,79,55,38,29.90,29.72,0,0,0,0.00
2012-4-26,91,80,71,67,63,59,78,59,38,29.87,29.75,0,0,0,0.00
2012-4-27,92,80,70,65,59,53,79,54,28,29.84,29.72,0,0,0,0.00
2012-4-28,90,80,70,63,60,55,76,53,32,29.90,29.78,0,0,0,0.00
2012-4-29,90,79,70,67,60,50,82,55,29,30.02,29.87,0,0,0,0.00
2012-4-30,88,79,73,69,65,59,83,63,41,30.02,29.87,0,0,0,0.00
2012-5-1,90,79,71,66,62,57,82,58,38,29.96,29.81,0,0,0,0.00
2012-5-2,87,78,72,67,64,60,80,62,42,29.93,29.81,0,0,0,0.00
2012-5-3,95,83,71,68,64,60,83,55,34,29.96,29.84,0,0,0,0.00
2012-5-4,96,82,74,70,64,49,79,56,32,29.99,29.84,0,0,0,0.00
2012-5-5,96,83,69,68,63,52,76,52,37,29.96,29.78,0,0,0,0.00
2012-5-6,93,83,75,69,64,54,80,57,30,29.87,29.78,0,0,0,0.00
2012-5-9,70,69,68,48,45,43,48,42,38,29.99,29.99,0,0,0,0.00
2012-5-10,84,73,60,54,48,39,72,44,21,29.99,29.84,0,0,0,0.00
2012-5-11,80,71,66,67,62,53,87,74,48,29.99,29.81,0,0,0,0.91
2012-5-12,74,69,66,66,61,55,92,77,54,30.17,29.99,0,0,0,0.24
2012-5-13,87,74,63,61,56,48,84,58,29,30.23,30.08,0,0,0,0.04
2012-5-14,87,75,63,62,55,49,82,53,29,30.14,30.02,0,0,0,0.04
2012-5-15,89,77,66,58,51,41,71,45,20,30.11,29.99,0,0,0,0.04
2012-5-16,93,78,64,60,52,42,77,46,18,30.11,29.96,0,0,0,0.04
2012-5-17,94,80,65,60,52,41,76,42,19,30.05,29.90,0,0,0,0.04
2012-5-18,93,80,69,60,54,47,70,42,22,29.96,29.84,0,0,0,0.04
2012-5-19,92,80,70,65,57,49,81,48,28,29.99,29.87,0,0,0,0.04
2012-5-20,93,81,72,64,56,46,70,45,22,30.17,29.96,0,0,0,0.04
2012-5-21,91,79,67,62,58,51,72,50,27,30.20,30.05,0,0,0,0.04
2012-5-22,96,81,67,60,56,49,69,45,26,30.08,29.81,0,0,0,0.04
2012-5-23,95,84,74,64,59,50,56,44,30,29.84,29.58,0,0,0,0.04
2012-5-24,97,84,75,67,64,61,69,53,32,29.72,29.61,0,0,0,0.04
2012-5-25,97,85,74,68,65,61,78,53,31,29.93,29.72,0,0,0,0.04
2012-5-26,96,85,76,69,63,52,76,50,26,30.05,29.93,0,0,0,0.04
2012-5-27,96,84,74,67,59,50,80,46,23,30.02,29.84,0,0,0,0.00
2012-5-28,99,86,74,67,62,55,75,48,28,30.02,29.78,0,0,0,0.47
2012-5-29,98,93,86,67,63,59,50,38,30,29.32,29.18,0,0,0,0.08
2012-5-30,93,82,69,66,60,53,80,51,27,29.44,29.12,0,0,0,0.55
2012-5-31,86,75,68,66,60,45,90,63,33,29.41,29.12,0,0,0,0.08
2012-6-1,90,76,63,54,49,43,69,40,20,29.47,29.32,0,0,0,0.00
2012-6-2,98,84,72,67,58,49,68,42,24,29.38,29.23,0,0,0,0.08
2012-6-3,97,86,76,70,65,56,77,51,27,29.35,29.23,0,0,0,0.08
2012-6-4,98,88,78,71,66,62,68,49,37,29.29,29.21,0,0,0,0.00
2012-6-5,99,86,76,68,64,58,75,51,28,29.29,29.15,0,0,0,0.00
2012-6-6,97,80,70,70,67,58,93,68,29,29.35,29.18,0,0,0,0.87
2012-6-7,77,73,70,70,67,64,93,83,64,29.44,29.32,0,0,0,0.20
2012-6-8,90,78,71,65,60,53,79,57,29,29.44,29.29,0,0,0,0.00
2012-6-9,94,82,70,69,64,58,85,57,32,29.32,29.15,0,0,0,0.00
2012-6-10,95,85,76,70,66,62,78,54,37,29.23,29.15,0,0,0,0.00
2012-6-11,100,88,78,73,70,60,84,56,33,29.38,29.18,0,0,0,0.00
2012-6-12,92,82,76,68,61,50,64,50,31,29.53,29.35,0,0,0,0.00
2012-6-13,93,79,72,70,65,62,85,65,38,29.53,29.26,0,0,0,0.75
2012-6-14,84,76,75,72,71,68,89,84,60,29.35,29.29,0,0,0,0.00
2012-6-15,95,84,72,74,68,63,91,60,38,29.44,29.32,0,0,0,0.31
2012-6-16,96,85,76,72,67,59,78,56,30,29.50,29.38,0,0,0,0.00
2012-6-17,94,83,74,72,67,62,78,60,36,29.47,29.26,0,0,0,0.00
2012-6-18,95,85,76,68,64,58,70,52,31,29.29,29.21,0,0,0,0.00
2012-6-19,95,82,75,70,67,61,82,62,37,29.35,29.26,0,0,0,0.00
2012-6-20,96,84,76,71,66,58,82,59,31,29.41,29.32,0,0,0,0.00
2012-6-21,98,85,75,72,65,57,81,55,28,29.50,29.35,0,0,0,0.00
2012-6-22,101,87,74,70,64,58,78,49,25,29.44,29.29,0,0,0,0.00
2012-6-23,102,90,77,70,62,50,76,43,19,29.38,29.29,0,0,0,0.00
2012-6-24,103,88,74,68,61,50,76,45,18,29.41,29.29,0,0,0,0.00
2012-6-25,106,90,74,70,60,47,76,43,15,29.38,29.23,0,0,0,0.00
2012-6-26,108,92,76,71,61,48,75,42,14,29.29,29.15,0,0,0,0.00
2012-6-27,105,93,84,69,59,43,55,35,15,29.38,29.23,0,0,0,0.00
2012-6-28,104,92,80,64,56,47,59,33,16,29.47,29.38,0,0,0,0.00
2012-6-29,103,91,80,70,62,51,69,41,20,29.44,29.29,0,0,0,0.00
2012-6-30,100,89,79,70,65,56,68,48,27,29.35,29.26,0,0,0,0.00
2012-7-1,99,85,78,71,66,58,77,55,28,29.44,29.35,0,0,0,0.00
2012-7-2,96,85,79,72,66,59,78,54,33,29.53,29.41,0,0,0,0.00
2012-7-3,100,88,78,69,60,47,69,42,17,29.50,29.35,0,0,0,0.00
2012-7-4,102,89,78,70,63,53,74,45,21,29.47,29.32,0,0,0,0.00
2012-7-5,103,90,79,71,62,51,72,42,19,29.47,29.35,0,0,0,0.00
2012-7-6,104,91,79,68,60,51,65,38,18,29.50,29.35,0,0,0,0.00
2012-7-7,104,87,79,68,63,52,68,48,18,29.47,29.38,0,0,0,0.00
2012-7-8,101,85,76,75,68,58,83,61,25,29.47,29.32,0,0,0,0.31
2012-7-9,99,85,78,74,69,58,85,63,29,29.44,29.26,0,0,0,0.00
2012-7-10,96,83,76,74,69,62,85,65,33,29.41,29.29,0,0,0,0.08
2012-7-11,98,84,74,73,66,54,87,59,27,29.41,29.32,0,0,0,0.00
2012-7-12,98,86,75,72,66,58,83,55,27,29.41,29.32,0,0,0,0.00
2012-7-13,98,86,75,72,65,58,83,53,27,29.44,29.35,0,0,0,0.00
2012-7-14,99,86,77,73,66,57,81,55,26,29.47,29.35,0,0,0,0.00
2012-7-15,96,81,74,70,67,58,79,64,31,29.47,29.35,0,0,0,0.00
2012-7-16,98,85,73,70,65,57,80,56,26,29.47,29.32,0,0,0,0.00
2012-7-17,101,88,77,72,65,58,81,50,26,29.44,29.32,0,0,0,0.00
2012-7-18,103,90,78,73,65,56,83,48,23,29.47,29.35,0,0,0,0.00
2012-7-19,104,91,80,68,62,51,68,41,19,29.53,29.38,0,0,0,0.00
2012-7-20,108,90,80,73,64,50,78,46,15,29.50,29.35,0,0,0,0.55
2012-7-21,108,90,76,72,64,48,85,50,14,29.41,29.26,0,0,0,0.00
2012-7-22,103,91,81,70,64,54,66,43,20,29.44,29.35,0,0,0,0.00
2012-7-23,101,92,80,69,61,56,68,38,23,29.53,29.41,0,0,0,0.00
2012-7-24,101,89,78,72,65,58,78,47,26,29.53,29.32,0,0,0,0.00
2012-7-25,103,91,80,72,65,55,75,46,23,29.41,29.23,0,0,0,0.00
2012-7-26,104,91,80,71,66,59,71,46,25,29.35,29.23,0,0,0,0.00
2012-7-27,101,90,80,72,65,53,70,46,25,29.47,29.35,0,0,0,0.00
2012-7-28,106,93,80,69,60,47,66,38,15,29.53,29.41,0,0,0,0.00
2012-7-29,108,93,78,62,54,40,57,30,11,29.50,29.35,0,0,0,0.00
2012-7-30,107,94,80,66,56,44,59,31,14,29.47,29.32,0,0,0,0.00
2012-7-31,106,91,81,67,61,48,62,39,16,29.41,29.29,0,0,0,0.00
2012-8-1,109,95,82,68,59,47,62,34,14,29.38,29.23,0,0,0,0.00
2012-8-2,109,95,82,64,56,45,54,31,14,29.32,29.21,0,0,0,0.00
2012-8-3,107,93,81,65,60,48,59,36,16,29.32,29.21,0,0,0,0.00
2012-8-4,105,93,80,70,62,50,68,39,18,29.41,29.26,0,0,0,0.00
2012-8-5,106,93,82,70,63,52,65,40,18,29.56,29.41,0,0,0,0.00
2012-8-6,107,94,84,67,61,53,57,36,18,29.53,29.35,0,0,0,0.00
2012-8-7,106,93,82,65,60,51,54,36,17,29.41,29.29,0,0,0,0.00
2012-8-8,101,90,82,68,63,58,60,43,25,29.47,29.32,0,0,0,0.00
2012-8-9,110,92,78,71,61,46,76,43,13,29.41,29.21,0,0,0,0.00
2012-8-10,101,90,80,65,55,40,56,32,16,29.38,29.26,0,0,0,0.00
2012-8-11,101,85,71,55,48,33,54,31,10,29.44,29.29,0,0,0,0.00
2012-8-12,107,90,76,66,59,50,58,38,17,29.38,29.23,0,0,0,0.00
2012-8-13,106,92,81,66,52,28,60,32,7,29.44,29.32,0,0,0,0.00
2012-8-14,108,89,75,72,56,36,85,37,11,29.38,29.21,0,0,0,0.12
2012-8-15,97,88,72,73,67,61,87,53,33,29.41,29.23,0,0,0,0.12
2012-8-16,90,84,79,70,64,59,69,52,37,29.47,29.32,0,0,0,0.00
2012-8-17,101,88,76,72,66,59,77,51,27,29.44,29.26,0,0,0,0.00
2012-8-18,90,79,71,72,66,59,90,65,44,29.41,29.23,0,0,0,0.71
2012-8-19,94,80,70,71,62,44,91,61,21,29.41,29.29,0,0,0,0.04
2012-8-20,93,80,69,65,56,46,76,47,22,29.44,29.32,0,0,0,0.00
2012-8-21,76,73,70,70,64,57,86,75,54,29.53,29.38,0,0,0,0.28
2012-8-23,82,82,82,61,61,60,50,49,48,29.38,29.35,0,0,0,0.00
2012-8-24,96,85,75,72,64,55,82,53,27,29.38,29.23,0,0,0,0.28
2012-8-25,96,86,79,72,67,59,76,55,31,29.32,29.23,0,0,0,0.28
2012-8-26,89,81,77,76,71,68,87,73,58,29.47,29.32,0,0,0,0.28
2012-8-27,97,84,75,76,67,56,90,60,27,29.50,29.32,0,0,0,0.28
2012-8-28,94,84,76,72,68,56,79,59,40,29.44,29.29,0,0,0,0.28
2012-8-29,97,84,71,60,56,48,64,41,20,29.35,29.18,0,0,0,0.28
2012-8-30,98,86,75,62,57,50,58,38,25,29.23,29.12,0,0,0,0.28
2012-8-31,101,88,79,70,62,51,67,45,19,29.35,29.21,0,0,0,0.28
2012-9-1,102,90,79,72,65,57,75,47,25,29.47,29.35,0,0,0,0.00
2012-9-2,103,90,78,70,63,54,74,44,21,29.44,29.29,0,0,0,0.28
2012-9-3,103,90,79,68,60,50,64,39,19,29.41,29.26,0,0,0,0.28
2012-9-4,104,91,80,71,61,48,70,40,16,29.35,29.21,0,0,0,0.28
2012-9-5,104,91,80,68,58,48,65,36,16,29.32,29.21,0,0,0,0.00
2012-9-6,105,91,79,66,56,45,62,33,14,29.35,29.23,0,0,0,0.00
2012-9-7,105,92,81,64,56,48,57,33,15,29.32,29.18,0,0,0,0.00
2012-9-8,87,77,69,62,48,37,77,41,19,29.56,29.32,0,0,0,0.00
2012-9-9,90,75,60,52,45,31,71,40,12,29.59,29.47,0,0,0,0.00
2012-9-10,94,78,62,56,45,31,72,38,11,29.56,29.41,0,0,0,0.00
2012-9-11,93,81,70,53,46,36,50,31,14,29.53,29.38,0,0,0,0.00
2012-9-12,96,83,72,66,57,46,67,44,21,29.50,29.35,0,0,0,0.00
2012-9-13,88,80,73,72,64,55,83,60,35,29.59,29.41,0,0,0,0.00
2012-9-14,74,70,67,63,60,58,82,72,59,29.65,29.56,0,0,0,0.00
2012-9-15,80,71,66,60,58,55,79,65,43,29.65,29.53,0,0,0,0.00
2012-9-16,71,69,67,67,64,58,91,83,69,29.53,29.38,0,0,0,0.28
2012-9-17,84,74,68,71,64,57,95,73,42,29.41,29.21,0,0,0,0.04
2012-9-18,84,72,64,63,51,32,88,54,16,29.50,29.32,0,0,0,0.00
2012-9-19,89,72,57,60,45,34,82,42,15,29.56,29.44,0,0,0,0.00
2012-9-20,95,79,65,55,50,44,59,38,18,29.47,29.35,0,0,0,0.00
2012-9-21,96,82,68,56,47,32,61,34,11,29.41,29.29,0,0,0,0.00
2012-9-22,97,81,67,60,48,33,62,35,11,29.53,29.38,0,0,0,0.00
2012-9-23,96,81,67,60,53,43,71,41,17,29.59,29.47,0,0,0,0.00
2012-9-24,98,84,73,66,54,36,71,40,14,29.56,29.35,0,0,0,0.00
2012-9-25,96,84,74,68,57,44,79,45,18,29.41,29.26,0,0,0,0.00
2012-9-26,95,84,76,69,59,49,77,47,22,29.44,29.32,0,0,0,0.00
2012-9-27,93,83,75,68,61,52,75,50,27,29.53,29.41,0,0,0,0.00
2012-9-28,89,79,72,66,63,56,75,60,36,29.50,29.35,0,0,0,0.00
2012-9-29,76,71,67,70,67,65,96,87,71,29.41,29.23,0,0,0,2.01
2012-9-30,74,68,62,66,59,46,96,74,41,29.32,29.26,0,0,0,0.12
2012-10-1,83,70,58,63,50,40,91,55,24,29.29,29.23,0,0,0,0.00
2012-10-2,80,71,65,56,51,46,67,51,32,29.41,29.29,0,0,0,0.00
2012-10-3,85,72,60,58,49,39,82,50,20,29.44,29.35,0,0,0,0.00
2012-10-4,87,77,68,66,59,48,71,54,44,29.53,29.44,0,0,0,0.00
2012-10-5,86,75,61,68,60,46,80,60,44,29.53,29.41,0,0,0,0.00
2012-10-6,61,56,50,46,42,35,68,59,51,29.68,29.53,0,0,0,0.00
2012-10-7,58,53,50,38,33,28,58,47,36,29.74,29.62,0,0,0,0.00
2012-10-8,68,56,42,41,36,31,74,51,32,29.71,29.47,0,0,0,0.00
2012-10-9,81,67,56,64,53,41,76,61,45,29.50,29.26,0,0,0,0.00
2012-10-10,72,68,64,67,62,59,92,80,71,29.56,29.38,0,0,0,0.00
2012-10-11,86,74,66,73,67,59,96,79,48,29.56,29.44,0,0,0,0.00
2012-10-12,87,78,71,71,66,60,91,69,44,29.59,29.47,0,0,0,0.00
2012-10-13,85,77,72,70,67,64,83,72,54,29.50,29.23,0,0,0,0.00
2012-10-14,82,72,63,70,55,44,88,60,29,29.50,29.26,0,0,0,0.75
2012-10-15,82,68,56,57,48,38,83,55,22,29.56,29.38,0,0,0,0.00
2012-10-16,76,68,61,64,53,47,84,60,43,29.41,29.12,0,0,0,0.00
2012-10-17,86,75,65,65,54,39,85,54,22,29.23,28.97,0,0,0,0.00
2012-10-18,75,65,55,46,33,20,55,33,13,29.44,29.21,0,0,0,0.00
2012-10-19,77,61,49,42,34,20,71,42,13,29.47,29.32,0,0,0,0.00
2012-10-20,86,71,55,68,53,37,76,53,41,29.32,29.15,0,0,0,0.00
2012-10-21,89,81,75,70,66,61,81,64,41,29.29,29.18,0,0,0,0.00
2012-10-22,86,77,74,70,66,56,84,70,44,29.41,29.29,0,0,0,0.00
2012-10-23,86,77,71,67,64,61,84,66,45,29.38,29.29,0,0,0,0.00
2012-10-24,85,76,70,67,62,57,86,63,41,29.41,29.23,0,0,0,0.00
2012-10-25,81,70,58,67,56,36,84,63,44,29.50,29.21,0,0,0,0.00
2012-10-26,58,54,49,39,33,26,56,46,37,29.74,29.50,0,0,0,0.00
2012-10-27,59,50,41,40,28,22,74,43,25,29.77,29.59,0,0,0,0.00
2012-10-28,64,50,39,36,29,24,73,48,24,29.71,29.59,0,0,0,0.00
2012-10-29,68,52,39,42,31,24,77,48,20,29.71,29.53,0,0,0,0.00
2012-10-30,76,59,44,40,36,34,73,46,23,29.53,29.35,0,0,0,0.00
2012-10-31,80,65,53,49,43,37,75,49,22,29.44,29.35,0,0,0,0.00
2012-11-1,85,66,51,52,46,37,80,52,19,29.47,29.32,0,0,0,0.00
2012-11-2,86,72,58,58,48,38,72,46,19,29.41,29.29,0,0,0,0.00
2012-11-3,82,72,64,64,56,47,86,58,39,29.50,29.32,0,0,0,0.00
2012-11-4,74,64,56,52,42,36,68,46,27,29.56,29.44,0,0,0,0.00
2012-11-5,75,62,52,51,39,27,79,47,22,29.53,29.41,0,0,0,0.00
2012-11-6,62,52,48,41,37,34,69,57,39,29.59,29.50,0,0,0,0.00
2012-11-9,82,73,65,61,54,47,81,55,33,29.62,29.38,0,0,0,0.00
2012-11-10,80,73,66,60,56,51,79,58,38,29.68,29.38,0,0,0,0.00
2012-11-11,76,66,47,62,54,30,72,64,43,30.83,29.41,0,0,0,0.00
2012-11-12,56,47,39,31,23,17,59,41,22,31.01,30.83,0,0,0,0.00
2012-11-13,61,48,34,34,25,20,75,44,22,31.01,31.01,0,0,0,0.00
2012-11-14,62,52,41,34,28,24,63,42,24,31.01,31.01,0,0,0,0.00
2012-11-15,66,52,39,35,29,26,69,44,25,31.01,31.01,0,0,0,0.00
2012-11-16,65,51,40,37,30,26,72,48,24,31.01,31.01,0,0,0,0.00
2012-11-17,65,50,37,37,30,25,72,49,24,31.01,31.01,0,0,0,0.00
2012-11-18,68,57,42,37,32,30,69,42,25,31.01,31.01,0,0,0,0.00
2012-11-19,72,64,58,51,44,32,72,50,35,31.01,31.01,0,0,0,0.00
2012-11-20,77,63,53,56,50,45,83,64,33,31.01,31.01,0,0,0,0.00
2012-11-21,78,63,50,56,45,40,83,56,26,31.01,31.01,0,0,0,0.00
2012-11-22,76,66,56,52,46,41,67,51,34,31.01,31.01,0,0,0,0.00
2012-11-23,66,60,50,53,32,16,81,39,16,31.01,31.01,0,0,0,0.00
2012-11-24,61,50,39,31,21,19,51,33,22,31.01,31.01,0,0,0,0.00
2012-11-25,74,60,45,53,34,22,65,38,26,31.01,31.01,0,0,0,0.00
2012-11-26,74,63,50,60,47,30,92,59,23,31.01,31.01,0,0,0,0.00
2012-11-27,60,48,41,36,30,23,67,50,37,31.01,31.01,0,0,0,0.00
2012-11-28,66,51,37,39,33,28,75,52,32,31.01,31.01,0,0,0,0.00
2012-11-29,68,56,40,48,37,30,78,51,25,31.01,28.64,0,0,0,0.00
2012-11-30,75,65,57,60,55,47,89,70,49,31.01,29.44,0,0,0,0.00
2012-12-1,81,72,65,66,59,54,94,68,40,31.01,29.53,0,0,0,0.00
2012-12-2,82,73,68,64,59,53,83,63,39,29.59,29.59,0,0,0,0.00
2012-12-3,80,71,66,60,56,53,82,61,40,29.59,29.59,0,0,0,0.00
2012-12-4,72,64,53,58,39,24,79,42,19,29.59,29.59,0,0,0,0.00
2012-12-5,66,55,45,46,36,24,74,49,32,29.59,29.59,0,0,0,0.00
2012-12-6,69,60,51,53,47,42,91,64,41,29.59,29.59,0,0,0,0.00
2012-12-7,72,62,54,54,47,39,84,60,37,29.59,29.59,0,0,0,0.00
2012-12-8,70,61,54,55,48,44,81,65,44,29.59,29.59,0,0,0,0.00
2012-12-9,69,60,42,66,48,12,97,69,30,29.59,29.59,0,0,0,0.00
2012-12-10,47,38,32,24,14,8,70,38,29,29.59,29.59,0,0,0,0.00
2012-12-11,50,38,28,20,13,4,60,38,16,29.59,29.59,0,0,0,0.00
2012-12-12,58,44,29,24,17,12,55,36,22,29.59,0.00,0,0,0,0.00
2012-12-13,65,52,38,29,21,15,44,30,24,0.00,0.00,0,0,0,0.00
2012-12-14,65,58,53,60,41,20,93,56,27,0.00,0.00,0,0,0,0.20
2012-12-15,72,63,54,60,40,23,94,50,16,0.00,0.00,0,0,0,0.00
2012-12-16,72,61,55,45,37,27,65,43,21,0.00,0.00,0,0,0,0.00
2012-12-17,63,53,46,37,33,27,65,46,34,29.38,0.00,0,0,0,0.00
2012-12-18,76,58,44,40,29,20,62,37,13,29.29,29.18,0,0,0,0.00
2012-12-19,78,70,58,63,54,15,89,61,15,29.29,29.00,0,0,0,0.04
2012-12-20,58,46,37,26,13,2,41,28,13,29.88,29.29,0,0,0,0.00
2012-12-21,64,47,32,17,12,8,45,27,13,29.91,29.74,0,0,0,0.00
2012-12-22,68,53,36,42,27,12,55,37,24,29.74,29.47,0,0,0,0.00
2012-12-23,66,58,48,52,36,16,83,47,16,29.47,29.29,0,0,0,0.00
2012-12-24,54,45,36,28,23,20,52,42,30,29.50,29.23,0,0,0,0.00
2012-12-25,49,39,30,46,32,19,93,77,43,29.62,29.06,0,0,0,1.02
2012-12-26,44,30,24,31,16,11,63,54,41,29.74,29.59,0,0,0,0.00
2012-12-27,49,38,29,44,29,18,87,70,58,29.59,29.32,0,0,0,0.00
2012-12-28,46,40,34,42,32,18,92,73,51,29.68,29.32,0,0,0,0.00
2012-12-29,46,36,30,22,18,14,60,48,34,29.88,29.68,0,0,0,0.00
2012-12-30,50,41,30,28,21,18,70,47,29,29.91,29.68,0,0,0,0.00
2012-12-31,51,46,41,48,41,22,92,81,41,29.68,29.41,0,0,0,0.20
2013-1-1,48,43,37,45,33,24,87,70,57,29.74,29.47,0,0,0,0.00